Time;durP1;ratioP1;P1;durP2;ratioP2;P2;SDS_P1;SDS_P2;PMS_P1;PMS_P2;Temp;Humidity;BMP_temperature;BMP_pressure;BME280_temperature;BME280_humidity;BME280_pressure;Samples;Min_cycle;Max_cycle;Signal;HPM_P1;HPM_P2
2022/12/09 00:01:34;;;;;;;66.93;14.27;;;;;;;;;;5058890;28;20440;-80
2022/12/09 00:04:06;;;;;;;49.95;14.48;;;;;;;;;;5057202;28;20436;-80
2022/12/09 00:06:34;;;;;;;59.78;14.68;;;;;;;;;;5062060;28;20425;-81
2022/12/09 00:09:13;;;;;;;52.17;14.63;;;;;;;;;;5066923;28;20425;-79
2022/12/09 00:11:45;;;;;;;57.28;15.40;;;;;;;;;;5063049;28;20425;-80
2022/12/09 00:14:18;;;;;;;34.53;14.07;;;;;;;;;;5098776;28;20780;-81
2022/12/09 00:16:47;;;;;;;37.42;14.48;;;;;;;;;;5069916;28;20423;-81
2022/12/09 00:19:15;;;;;;;35.57;13.67;;;;;;;;;;5081544;28;20425;-81
2022/12/09 00:21:43;;;;;;;42.30;14.48;;;;;;;;;;5066061;28;20430;-80
2022/12/09 00:24:16;;;;;;;42.50;14.43;;;;;;;;;;5061005;28;20431;-79
2022/12/09 00:26:48;;;;;;;62.53;15.05;;;;;;;;;;5085021;28;20439;-80
2022/12/09 00:29:21;;;;;;;63.42;15.13;;;;;;;;;;5065516;28;20425;-80
2022/12/09 00:31:55;;;;;;;50.25;16.33;;;;;;;;;;5066067;28;20421;-80
2022/12/09 00:34:28;;;;;;;65.32;15.68;;;;;;;;;;5079767;28;20428;-80
2022/12/09 00:36:56;;;;;;;62.47;14.75;;;;;;;;;;5068221;28;20419;-81
2022/12/09 00:39:28;;;;;;;45.03;15.13;;;;;;;;;;5070651;28;20440;-80
2022/12/09 00:42:01;;;;;;;41.88;13.65;;;;;;;;;;5073581;28;20920;-79
2022/12/09 00:44:34;;;;;;;34.50;13.40;;;;;;;;;;5065463;28;20900;-79
2022/12/09 00:47:08;;;;;;;34.50;13.82;;;;;;;;;;5063450;28;20419;-81
2022/12/09 00:49:41;;;;;;;34.75;12.88;;;;;;;;;;5065064;28;20419;-80
2022/12/09 00:52:09;;;;;;;41.15;14.30;;;;;;;;;;5062981;28;22373;-80
2022/12/09 00:54:42;;;;;;;74.18;13.13;;;;;;;;;;5062347;28;20416;-79
2022/12/09 00:57:09;;;;;;;56.20;13.07;;;;;;;;;;5069046;28;20429;-79
2022/12/09 00:59:42;;;;;;;47.03;13.95;;;;;;;;;;5060790;28;20431;-81
2022/12/09 01:02:12;;;;;;;59.22;13.48;;;;;;;;;;5061509;28;20418;-80
2022/12/09 01:04:40;;;;;;;191.90;15.35;;;;;;;;;;5064958;28;20419;-80
2022/12/09 01:07:14;;;;;;;103.47;13.18;;;;;;;;;;5066074;28;20436;-82
2022/12/09 01:09:47;;;;;;;175.48;13.00;;;;;;;;;;5065767;28;20737;-79
2022/12/09 01:12:19;;;;;;;220.95;13.73;;;;;;;;;;5069976;28;20419;-79
2022/12/09 01:14:47;;;;;;;95.88;12.45;;;;;;;;;;5062388;28;20931;-81
2022/12/09 01:17:16;;;;;;;294.58;14.95;;;;;;;;;;5097032;28;20774;-80
2022/12/09 01:19:45;;;;;;;146.00;13.18;;;;;;;;;;5063421;28;20422;-80
2022/12/09 01:22:12;;;;;;;218.77;13.65;;;;;;;;;;5066996;28;20768;-80
2022/12/09 01:24:46;;;;;;;272.42;14.60;;;;;;;;;;5069994;28;20419;-80
2022/12/09 01:27:19;;;;;;;184.40;14.80;;;;;;;;;;5096197;28;20432;-81
2022/12/09 01:29:52;;;;;;;115.88;14.38;;;;;;;;;;5069615;28;20435;-79
2022/12/09 01:32:26;;;;;;;101.32;13.95;;;;;;;;;;5064312;28;20421;-79
2022/12/09 01:35:00;;;;;;;163.40;14.27;;;;;;;;;;5068027;28;20448;-80
2022/12/09 01:37:33;;;;;;;93.63;12.70;;;;;;;;;;5058378;28;20425;-81
2022/12/09 01:40:07;;;;;;;89.80;12.93;;;;;;;;;;5067743;28;20421;-80
2022/12/09 01:42:35;;;;;;;167.30;14.07;;;;;;;;;;5064269;28;20907;-80
2022/12/09 01:45:23;;;;;;;93.72;12.63;;;;;;;;;;5060820;28;20436;-81
2022/12/09 01:48:00;;;;;;;86.72;12.90;;;;;;;;;;5063738;28;20433;-79
2022/12/09 01:50:35;;;;;;;79.75;12.20;;;;;;;;;;5064820;28;20419;-80
2022/12/09 01:53:03;;;;;;;106.78;12.93;;;;;;;;;;5057335;28;20443;-80
2022/12/09 01:55:32;;;;;;;203.13;11.27;;;;;;;;;;5065711;28;20432;-80
2022/12/09 01:58:00;;;;;;;335.30;12.25;;;;;;;;;;5061623;28;20772;-80
2022/12/09 02:00:28;;;;;;;400.42;14.15;;;;;;;;;;5066369;28;20428;-79
2022/12/09 02:02:59;;;;;;;335.97;11.83;;;;;;;;;;5063460;28;20454;-80
2022/12/09 02:05:29;;;;;;;217.48;11.05;;;;;;;;;;5063939;28;20419;-80
2022/12/09 02:08:01;;;;;;;221.40;10.40;;;;;;;;;;5057373;28;20417;-80
2022/12/09 02:10:36;;;;;;;116.25;10.13;;;;;;;;;;5059070;28;21474;-79
2022/12/09 02:13:11;;;;;;;124.97;11.07;;;;;;;;;;5057427;28;20929;-81
2022/12/09 02:15:46;;;;;;;61.80;10.23;;;;;;;;;;5061762;28;20420;-80
2022/12/09 02:18:20;;;;;;;96.75;10.68;;;;;;;;;;5063829;28;20764;-79
2022/12/09 02:20:52;;;;;;;47.78;10.45;;;;;;;;;;5066912;28;20913;-80
2022/12/09 02:23:28;;;;;;;39.10;9.65;;;;;;;;;;5069151;28;20445;-79
2022/12/09 02:26:07;;;;;;;43.33;9.73;;;;;;;;;;5065163;28;20428;-79
2022/12/09 02:28:47;;;;;;;32.38;9.68;;;;;;;;;;5062427;28;20410;-80
2022/12/09 02:31:21;;;;;;;64.47;9.80;;;;;;;;;;5069383;28;20439;-79
2022/12/09 02:34:08;;;;;;;39.93;9.43;;;;;;;;;;5059233;28;20425;-81
2022/12/09 02:36:39;;;;;;;55.60;9.40;;;;;;;;;;5058746;28;20722;-80
2022/12/09 02:39:08;;;;;;;46.00;9.60;;;;;;;;;;5060610;28;20414;-80
2022/12/09 02:41:44;;;;;;;60.08;9.50;;;;;;;;;;5055599;28;20423;-80
2022/12/09 02:44:14;;;;;;;43.72;9.73;;;;;;;;;;5059780;28;20425;-80
2022/12/09 02:46:42;;;;;;;54.22;9.77;;;;;;;;;;5079250;28;20475;-80
2022/12/09 02:49:14;;;;;;;48.05;9.80;;;;;;;;;;5061982;28;20434;-79
2022/12/09 02:51:48;;;;;;;82.95;9.85;;;;;;;;;;5066057;28;20427;-80
2022/12/09 02:54:23;;;;;;;126.10;10.95;;;;;;;;;;5060970;28;20435;-81
2022/12/09 02:56:57;;;;;;;94.50;10.63;;;;;;;;;;5058782;28;20431;-81
2022/12/09 02:59:28;;;;;;;56.80;10.85;;;;;;;;;;5094473;28;20786;-80
2022/12/09 03:01:59;;;;;;;87.90;11.05;;;;;;;;;;5058534;28;20412;-80
2022/12/09 03:04:29;;;;;;;120.53;12.02;;;;;;;;;;5062520;28;20440;-79
2022/12/09 03:07:02;;;;;;;76.80;11.07;;;;;;;;;;5063666;28;20915;-80
2022/12/09 03:09:33;;;;;;;74.35;11.75;;;;;;;;;;5068610;28;20411;-79
2022/12/09 03:12:04;;;;;;;95.00;11.63;;;;;;;;;;5056243;28;20781;-80
2022/12/09 03:14:35;;;;;;;75.53;10.75;;;;;;;;;;5060323;28;20408;-81
2022/12/09 03:17:08;;;;;;;56.28;11.07;;;;;;;;;;5061834;28;20430;-80
2022/12/09 03:19:42;;;;;;;65.22;12.60;;;;;;;;;;5058083;28;20412;-80
2022/12/09 03:22:17;;;;;;;86.35;12.50;;;;;;;;;;5058485;28;20418;-81
2022/12/09 03:24:52;;;;;;;81.50;12.00;;;;;;;;;;5059217;28;20421;-79
2022/12/09 03:27:26;;;;;;;54.20;11.57;;;;;;;;;;5063009;28;20957;-80
2022/12/09 03:30:00;;;;;;;103.57;12.98;;;;;;;;;;5075623;28;20414;-80
2022/12/09 03:32:29;;;;;;;81.00;12.55;;;;;;;;;;5063244;28;20408;-81
2022/12/09 03:35:08;;;;;;;50.03;12.20;;;;;;;;;;5065985;28;20433;-80
2022/12/09 03:37:41;;;;;;;57.88;12.68;;;;;;;;;;5094348;28;20900;-80
2022/12/09 03:40:16;;;;;;;91.17;12.93;;;;;;;;;;5056742;28;20421;-80
2022/12/09 03:42:51;;;;;;;45.88;12.80;;;;;;;;;;5063240;28;20450;-80
2022/12/09 03:45:24;;;;;;;54.00;12.40;;;;;;;;;;5060688;28;20982;-79
2022/12/09 03:47:56;;;;;;;41.40;12.27;;;;;;;;;;5059839;28;20401;-81
2022/12/09 03:50:34;;;;;;;57.38;12.18;;;;;;;;;;5060323;28;20425;-80
2022/12/09 03:53:10;;;;;;;36.58;12.13;;;;;;;;;;5060446;28;20435;-79
2022/12/09 03:55:47;;;;;;;34.53;12.05;;;;;;;;;;5061647;28;20432;-80
2022/12/09 03:58:20;;;;;;;36.88;11.90;;;;;;;;;;5058582;28;20492;-81
2022/12/09 04:00:48;;;;;;;28.50;11.65;;;;;;;;;;5065087;28;20422;-80
2022/12/09 04:03:21;;;;;;;37.30;11.20;;;;;;;;;;5063649;28;20766;-80
2022/12/09 04:05:55;;;;;;;31.20;11.30;;;;;;;;;;5092184;28;20781;-80
2022/12/09 04:08:28;;;;;;;37.17;11.40;;;;;;;;;;5076988;28;20428;-80
2022/12/09 04:10:56;;;;;;;34.17;10.57;;;;;;;;;;5057735;28;20429;-80
2022/12/09 04:13:29;;;;;;;36.10;12.02;;;;;;;;;;5062018;28;20922;-79
2022/12/09 04:15:57;;;;;;;35.92;11.35;;;;;;;;;;5058537;28;20428;-79
2022/12/09 04:18:25;;;;;;;40.00;12.32;;;;;;;;;;5093409;28;20426;-79
2022/12/09 04:20:59;;;;;;;33.63;11.40;;;;;;;;;;5059572;28;20417;-80
2022/12/09 04:23:32;;;;;;;33.88;11.27;;;;;;;;;;5061030;28;20429;-81
2022/12/09 04:26:00;;;;;;;32.05;11.20;;;;;;;;;;5063020;28;20421;-79
2022/12/09 04:28:33;;;;;;;32.72;11.65;;;;;;;;;;5094888;28;20769;-79
2022/12/09 04:31:00;;;;;;;32.60;11.85;;;;;;;;;;5065930;28;20450;-80
2022/12/09 04:33:33;;;;;;;37.50;12.23;;;;;;;;;;5060387;28;20423;-80
2022/12/09 04:36:09;;;;;;;41.28;12.90;;;;;;;;;;5058320;28;20415;-80
2022/12/09 04:38:42;;;;;;;39.53;13.75;;;;;;;;;;5059583;28;20429;-80
2022/12/09 04:41:10;;;;;;;37.38;12.80;;;;;;;;;;5064968;28;20766;-79
2022/12/09 04:43:43;;;;;;;41.17;13.15;;;;;;;;;;5061962;28;20425;-80
2022/12/09 04:46:17;;;;;;;44.00;17.08;;;;;;;;;;5062340;28;20423;-80
2022/12/09 04:48:49;;;;;;;41.40;14.00;;;;;;;;;;5060527;28;20774;-80
2022/12/09 04:51:24;;;;;;;43.00;14.43;;;;;;;;;;5062052;28;20408;-80
2022/12/09 04:53:51;;;;;;;28.75;10.07;;;;;;;;;;5069912;28;20061;-80
2022/12/09 04:56:19;;;;;;;;;;;;;;;;;;5066549;28;20068;-79
2022/12/09 04:58:47;;;;;;;24.20;10.95;;;;;;;;;;5065209;28;19935;-81
2022/12/09 05:01:20;;;;;;;21.30;8.98;;;;;;;;;;5069880;28;20477;-80
2022/12/09 05:03:49;;;;;;;27.48;8.55;;;;;;;;;;5064251;28;20052;-80
2022/12/09 05:06:24;;;;;;;19.63;8.07;;;;;;;;;;5058983;28;20048;-80
2022/12/09 05:08:56;;;;;;;19.35;7.68;;;;;;;;;;5063987;28;20041;-80
2022/12/09 05:11:29;;;;;;;16.23;6.85;;;;;;;;;;5062724;28;20045;-81
2022/12/09 05:13:57;;;;;;;19.08;8.55;;;;;;;;;;5063029;28;20049;-80
2022/12/09 05:16:30;;;;;;;21.17;8.18;;;;;;;;;;5064792;28;20404;-81
2022/12/09 05:19:03;;;;;;;18.02;6.47;;;;;;;;;;5065180;28;20036;-80
2022/12/09 05:21:32;;;;;;;16.20;7.45;;;;;;;;;;5063699;28;20078;-80
2022/12/09 05:24:05;;;;;;;17.73;7.18;;;;;;;;;;5063184;28;20044;-80
2022/12/09 05:26:33;;;;;;;15.82;7.15;;;;;;;;;;5062323;28;20505;-80
2022/12/09 05:29:01;;;;;;;15.68;7.97;;;;;;;;;;5064588;28;20040;-81
2022/12/09 05:31:29;;;;;;;20.52;7.53;;;;;;;;;;5070743;28;20049;-80
2022/12/09 05:34:02;;;;;;;16.25;7.32;;;;;;;;;;5064565;28;20048;-80
2022/12/09 05:36:30;;;;;;;;;;;;;;;;;;5061068;28;20044;-80
2022/12/09 05:38:57;;;;;;;;;;;;;;;;;;5063628;28;19931;-80
2022/12/09 05:41:31;;;;;;;14.95;5.03;;;;;;;;;;5070975;28;20281;-80
2022/12/09 05:44:04;;;;;;;16.45;6.53;;;;;;;;;;5094131;28;20067;-80
2022/12/09 05:46:37;;;;;;;13.18;6.10;;;;;;;;;;5079415;28;20059;-79
2022/12/09 05:49:04;;;;;;;;;;;;;;;;;;5096504;28;20045;-81
2022/12/09 05:51:32;;;;;;;14.75;5.82;;;;;;;;;;5063377;28;19925;-80
2022/12/09 05:54:00;;;;;;;;;;;;;;;;;;5094874;28;20055;-81
2022/12/09 05:56:28;;;;;;;13.25;6.07;;;;;;;;;;5070470;28;19951;-80
2022/12/09 05:59:02;;;;;;;17.95;7.28;;;;;;;;;;5064278;28;20045;-80
2022/12/09 06:01:29;;;;;;;15.75;6.18;;;;;;;;;;5061564;28;20060;-79
2022/12/09 06:04:03;;;;;;;14.45;6.57;;;;;;;;;;5064821;28;20063;-81
2022/12/09 06:06:35;;;;;;;14.00;6.10;;;;;;;;;;5061075;28;20068;-81
2022/12/09 06:09:10;;;;;;;15.80;7.40;;;;;;;;;;5068491;28;20048;-82
2022/12/09 06:11:43;;;;;;;14.15;6.28;;;;;;;;;;5064814;28;20052;-81
2022/12/09 06:14:17;;;;;;;10.75;5.82;;;;;;;;;;5062674;28;21160;-80
2022/12/09 06:16:45;;;;;;;11.85;5.72;;;;;;;;;;5102851;28;20055;-80
2022/12/09 06:19:17;;;;;;;12.98;6.10;;;;;;;;;;5065119;28;20052;-80
2022/12/09 06:21:45;;;;;;;;;;;;;;;;;;5062979;28;20040;-80
2022/12/09 06:24:13;;;;;;;10.35;5.18;;;;;;;;;;5078783;28;19920;-80
2022/12/09 06:26:40;;;;;;;12.15;5.85;;;;;;;;;;5067014;28;20047;-80
2022/12/09 06:29:13;;;;;;;10.90;5.22;;;;;;;;;;5067572;28;20040;-80
2022/12/09 06:31:47;;;;;;;13.77;6.55;;;;;;;;;;5099079;27;20485;-80
2022/12/09 06:34:15;;;;;;;12.05;5.55;;;;;;;;;;5066467;28;20048;-80
2022/12/09 06:36:43;;;;;;;;;;;;;;;;;;5070935;28;20041;-80
2022/12/09 06:39:10;;;;;;;;;;;;;;;;;;5067292;28;19928;-81
2022/12/09 06:41:39;;;;;;;13.88;3.83;;;;;;;;;;5068223;28;19928;-81
2022/12/09 06:44:12;;;;;;;9.10;4.55;;;;;;;;;;5066921;28;20059;-81
2022/12/09 06:46:40;;;;;;;;;;;;;;;;;;5063576;28;20048;-80
2022/12/09 06:49:14;;;;;;;9.88;4.45;;;;;;;;;;5061961;28;19928;-80
2022/12/09 06:51:42;;;;;;;13.43;6.47;;;;;;;;;;5060401;28;20055;-81
2022/12/09 06:54:09;;;;;;;;;;;;;;;;;;5068979;28;20045;-80
2022/12/09 06:56:37;;;;;;;14.68;5.22;;;;;;;;;;5062729;28;19928;-80
2022/12/09 06:59:10;;;;;;;10.73;5.32;;;;;;;;;;5063316;28;20041;-80
2022/12/09 07:01:38;;;;;;;31.75;7.53;;;;;;;;;;5061351;28;20421;-80
2022/12/09 07:04:07;;;;;;;19.98;7.00;;;;;;;;;;5065993;28;20040;-81
2022/12/09 07:06:37;;;;;;;15.90;6.38;;;;;;;;;;5064852;28;20052;-80
2022/12/09 07:09:06;;;;;;;15.02;6.65;;;;;;;;;;5076719;28;20049;-81
2022/12/09 07:11:41;;;;;;;13.57;6.57;;;;;;;;;;5066647;28;20052;-81
2022/12/09 07:14:14;;;;;;;19.13;7.85;;;;;;;;;;5059681;28;20485;-80
2022/12/09 07:16:43;;;;;;;17.48;8.10;;;;;;;;;;5062131;28;20057;-80
2022/12/09 07:19:17;;;;;;;12.80;6.75;;;;;;;;;;5066278;28;20049;-81
2022/12/09 07:21:46;;;;;;;19.38;7.80;;;;;;;;;;5079400;28;20075;-81
2022/12/09 07:24:14;;;;;;;19.80;7.03;;;;;;;;;;5063842;28;20051;-81
2022/12/09 07:26:47;;;;;;;15.82;7.10;;;;;;;;;;5058053;28;20045;-80
2022/12/09 07:29:20;;;;;;;13.75;6.95;;;;;;;;;;5059985;28;20052;-80
2022/12/09 07:31:53;;;;;;;17.27;6.95;;;;;;;;;;5064480;28;20382;-80
2022/12/09 07:34:28;;;;;;;16.55;7.47;;;;;;;;;;5056481;28;20396;-80
2022/12/09 07:36:55;;;;;;;;;;;;;;;;;;5062659;28;20048;-81
2022/12/09 07:39:25;;;;;;;12.60;6.40;;;;;;;;;;5079494;28;19920;-81
2022/12/09 07:41:57;;;;;;;15.90;7.63;;;;;;;;;;5077414;28;20091;-80
2022/12/09 07:44:29;;;;;;;11.77;5.57;;;;;;;;;;5090922;28;20063;-80
2022/12/09 07:46:57;;;;;;;;;;;;;;;;;;5060819;28;20056;-80
2022/12/09 07:49:25;;;;;;;12.27;6.03;;;;;;;;;;5068041;28;19921;-82
2022/12/09 07:51:57;;;;;;;15.43;6.35;;;;;;;;;;5064830;28;20056;-79
2022/12/09 07:54:25;;;;;;;;;;;;;;;;;;5064326;28;20048;-79
2022/12/09 07:56:54;;;;;;;10.73;6.05;;;;;;;;;;5064997;28;19920;-81
2022/12/09 07:59:27;;;;;;;13.15;5.63;;;;;;;;;;5063718;28;20040;-80
2022/12/09 08:02:00;;;;;;;15.38;6.32;;;;;;;;;;5066366;28;20059;-80
2022/12/09 08:04:34;;;;;;;11.60;6.15;;;;;;;;;;5070416;28;20039;-79
2022/12/09 08:07:02;;;;;;;14.65;7.07;;;;;;;;;;5060988;28;20067;-79
2022/12/09 08:09:30;;;;;;;;;;;;;;;;;;5060759;28;20049;-79
2022/12/09 08:12:04;;;;;;;14.43;5.72;;;;;;;;;;5079425;28;19920;-84
2022/12/09 08:14:31;;;;;;;8.95;4.65;;;;;;;;;;5055705;28;20056;-84
2022/12/09 08:16:59;;;;;;;;;;;;;;;;;;5073205;28;20048;-81
2022/12/09 08:19:32;;;;;;;10.10;4.45;;;;;;;;;;5041858;28;19935;-84
2022/12/09 08:22:05;;;;;;;8.80;4.10;;;;;;;;;;5051505;28;20064;-81
2022/12/09 08:24:37;;;;;;;11.48;5.20;;;;;;;;;;5043881;28;20048;-85
2022/12/09 08:27:11;;;;;;;14.07;5.70;;;;;;;;;;5050027;28;20061;-84
2022/12/09 08:29:44;;;;;;;13.63;5.47;;;;;;;;;;5051609;28;20052;-81
2022/12/09 08:32:13;;;;;;;12.13;5.72;;;;;;;;;;5049450;28;20063;-83
2022/12/09 08:34:46;;;;;;;12.45;5.85;;;;;;;;;;5050703;28;20052;-84
2022/12/09 08:37:13;;;;;;;;;;;;;;;;;;5048830;28;20067;-83
2022/12/09 08:39:41;;;;;;;8.38;4.53;;;;;;;;;;5066919;28;19928;-85
2022/12/09 08:42:09;;;;;;;8.98;4.75;;;;;;;;;;5050665;28;20071;-83
2022/12/09 08:44:43;;;;;;;9.68;5.47;;;;;;;;;;5050184;28;20432;-82
2022/12/09 08:47:11;;;;;;;9.35;4.95;;;;;;;;;;5050112;28;20052;-81
2022/12/09 08:49:38;;;;;;;;;;;;;;;;;;5057548;28;20052;-82
2022/12/09 08:52:11;;;;;;;11.57;5.18;;;;;;;;;;5062430;28;19920;-80
2022/12/09 08:54:39;;;;;;;12.63;4.18;;;;;;;;;;5051574;28;20059;-80
2022/12/09 08:57:12;;;;;;;11.10;5.03;;;;;;;;;;5055535;28;20513;-84
2022/12/09 08:59:46;;;;;;;11.80;5.22;;;;;;;;;;5049933;28;21329;-81
2022/12/09 09:02:18;;;;;;;11.55;4.43;;;;;;;;;;5061194;28;20716;-82
2022/12/09 09:04:46;;;;;;;9.27;4.82;;;;;;;;;;5048400;28;20058;-83
2022/12/09 09:07:19;;;;;;;10.45;4.85;;;;;;;;;;5049787;28;20065;-80
2022/12/09 09:09:47;;;;;;;13.98;5.38;;;;;;;;;;5050416;28;20079;-81
2022/12/09 09:12:15;;;;;;;10.55;4.60;;;;;;;;;;5042915;28;20048;-83
2022/12/09 09:14:42;;;;;;;;;;;;;;;;;;5047327;28;20068;-83
2022/12/09 09:17:11;;;;;;;8.80;5.57;;;;;;;;;;5046171;28;21528;-81
2022/12/09 09:19:44;;;;;;;10.35;4.32;;;;;;;;;;5045375;28;20049;-81
2022/12/09 09:22:12;;;;;;;;;;;;;;;;;;5046811;28;20067;-83
2022/12/09 09:24:40;;;;;;;10.40;4.32;;;;;;;;;;5050547;28;20392;-83
2022/12/09 09:27:12;;;;;;;8.80;4.28;;;;;;;;;;5047988;28;20063;-84
2022/12/09 09:29:40;;;;;;;;;;;;;;;;;;5049005;28;20045;-83
2022/12/09 09:32:08;;;;;;;8.10;4.57;;;;;;;;;;5044470;28;20340;-82
2022/12/09 09:34:35;;;;;;;;;;;;;;;;;;5042105;28;20061;-82
2022/12/09 09:37:09;;;;;;;6.85;4.05;;;;;;;;;;5045709;28;19935;-83
2022/12/09 09:39:43;;;;;;;12.55;4.38;;;;;;;;;;5038142;28;20059;-81
2022/12/09 09:42:18;;;;;;;9.55;4.43;;;;;;;;;;5046035;28;20056;-83
2022/12/09 09:44:47;;;;;;;7.88;4.43;;;;;;;;;;5054115;28;20064;-81
2022/12/09 09:47:16;;;;;;;9.60;4.60;;;;;;;;;;5043458;28;20367;-82
2022/12/09 09:49:52;;;;;;;12.20;5.90;;;;;;;;;;5050216;28;20538;-82
2022/12/09 09:52:22;;;;;;;13.15;6.57;;;;;;;;;;5038165;28;20424;-80
2022/12/09 09:54:55;;;;;;;11.82;4.97;;;;;;;;;;5042177;28;20052;-82
2022/12/09 09:57:32;;;;;;;11.48;5.47;;;;;;;;;;5037362;28;20056;-82
2022/12/09 10:00:05;;;;;;;10.60;5.00;;;;;;;;;;5043610;28;20063;-80
2022/12/09 10:02:47;;;;;;;13.60;4.22;;;;;;;;;;5057515;28;20056;-81
2022/12/09 10:05:22;;;;;;;10.82;5.65;;;;;;;;;;5042717;28;20065;-81
2022/12/09 10:08:02;;;;;;;11.32;5.35;;;;;;;;;;5042132;28;20048;-82
2022/12/09 10:10:41;;;;;;;11.05;5.60;;;;;;;;;;5037980;28;20048;-80
2022/12/09 10:13:20;;;;;;;13.77;4.97;;;;;;;;;;5044626;28;20535;-81
2022/12/09 10:15:52;;;;;;;9.00;4.78;;;;;;;;;;5041643;28;20048;-81
2022/12/09 10:18:27;;;;;;;9.85;4.85;;;;;;;;;;5051716;28;20037;-80
2022/12/09 10:21:00;;;;;;;10.90;5.53;;;;;;;;;;5048824;28;20053;-80
2022/12/09 10:23:34;;;;;;;21.33;5.15;;;;;;;;;;5042701;28;20055;-80
2022/12/09 10:26:11;;;;;;;13.57;6.15;;;;;;;;;;5050640;28;20101;-81
2022/12/09 10:28:46;;;;;;;8.93;4.90;;;;;;;;;;5059848;28;20734;-79
2022/12/09 10:31:15;;;;;;;9.15;5.18;;;;;;;;;;5045404;28;20052;-81
2022/12/09 10:33:48;;;;;;;9.63;4.70;;;;;;;;;;5052260;28;20052;-81
2022/12/09 10:36:23;;;;;;;8.23;4.47;;;;;;;;;;5045154;28;20063;-80
2022/12/09 10:38:52;;;;;;;10.18;5.43;;;;;;;;;;5039725;28;20059;-81
2022/12/09 10:44:19;;;;;;;10.13;5.13;;;;;;;;;;5045486;28;20056;-79
2022/12/09 10:46:47;;;;;;;9.40;4.68;;;;;;;;;;5043489;28;20107;-82
2022/12/09 10:49:21;;;;;;;13.40;5.35;;;;;;;;;;5042832;28;20712;-81
2022/12/09 10:51:50;;;;;;;9.60;5.05;;;;;;;;;;5040100;28;20126;-82
2022/12/09 10:54:24;;;;;;;11.32;5.75;;;;;;;;;;5044630;28;20890;-82
2022/12/09 10:57:04;;;;;;;10.77;5.35;;;;;;;;;;5047816;28;20059;-83
2022/12/09 10:59:37;;;;;;;9.10;4.88;;;;;;;;;;5038487;28;21021;-84
2022/12/09 11:02:19;;;;;;;8.52;4.25;;;;;;;;;;5040671;28;20760;-81
2022/12/09 11:04:51;;;;;;;11.05;5.60;;;;;;;;;;5039033;28;20063;-82
2022/12/09 11:07:21;;;;;;;8.23;4.55;;;;;;;;;;5040341;28;20064;-82
2022/12/09 11:09:51;;;;;;;10.60;5.13;;;;;;;;;;5048680;28;20072;-80
2022/12/09 11:12:29;;;;;;;8.30;4.47;;;;;;;;;;5041691;28;20056;-80
2022/12/09 11:15:03;;;;;;;12.32;5.57;;;;;;;;;;5044966;28;20048;-83
2022/12/09 11:17:38;;;;;;;11.48;5.05;;;;;;;;;;5044730;28;20056;-82
2022/12/09 11:20:18;;;;;;;9.93;5.15;;;;;;;;;;5053812;28;21373;-84
2022/12/09 11:22:58;;;;;;;9.98;5.45;;;;;;;;;;5054360;28;20048;-81
2022/12/09 11:25:34;;;;;;;13.50;5.55;;;;;;;;;;5053769;28;20059;-80
2022/12/09 11:28:03;;;;;;;10.15;5.25;;;;;;;;;;5049716;28;20059;-83
2022/12/09 11:30:33;;;;;;;12.13;6.07;;;;;;;;;;5044141;28;20056;-82
2022/12/09 11:33:05;;;;;;;13.27;6.07;;;;;;;;;;5051757;28;20060;-83
2022/12/09 11:35:36;;;;;;;9.73;5.03;;;;;;;;;;5046284;28;20157;-83
2022/12/09 11:38:14;;;;;;;9.30;5.15;;;;;;;;;;5044617;28;20053;-83
2022/12/09 11:40:41;;;;;;;;;;;;;;;;;;5045905;28;20063;-83
2022/12/09 11:43:10;;;;;;;11.73;5.40;;;;;;;;;;5045509;28;20498;-82
2022/12/09 11:45:40;;;;;;;9.32;5.50;;;;;;;;;;5041538;28;20671;-83
2022/12/09 11:48:12;;;;;;;11.18;4.95;;;;;;;;;;5045425;28;20063;-81
2022/12/09 11:50:41;;;;;;;12.77;6.53;;;;;;;;;;5047730;28;20052;-84
2022/12/09 11:53:22;;;;;;;14.27;6.15;;;;;;;;;;5078742;28;20052;-83
2022/12/09 11:55:53;;;;;;;14.07;5.30;;;;;;;;;;5052407;28;20052;-82
2022/12/09 11:58:29;;;;;;;15.63;6.55;;;;;;;;;;5048699;28;20051;-83
2022/12/09 12:01:04;;;;;;;11.55;5.20;;;;;;;;;;5057887;28;20103;-80
2022/12/09 12:03:39;;;;;;;17.52;9.00;;;;;;;;;;5048895;28;20719;-81
2022/12/09 12:06:15;;;;;;;22.40;11.40;;;;;;;;;;5052803;28;20059;-83
2022/12/09 12:08:50;;;;;;;13.90;7.93;;;;;;;;;;5046301;28;20059;-82
2022/12/09 12:11:19;;;;;;;15.30;6.07;;;;;;;;;;5046792;28;20060;-80
2022/12/09 12:13:49;;;;;;;15.00;6.15;;;;;;;;;;5048461;28;20513;-82
2022/12/09 12:16:24;;;;;;;12.63;6.80;;;;;;;;;;5050894;28;20075;-82
2022/12/09 12:18:53;;;;;;;19.25;7.63;;;;;;;;;;5050891;28;20442;-81
2022/12/09 12:21:27;;;;;;;14.23;5.72;;;;;;;;;;5050317;28;20052;-82
2022/12/09 12:24:10;;;;;;;13.05;6.18;;;;;;;;;;5051621;28;20056;-80
2022/12/09 12:26:40;;;;;;;13.02;6.28;;;;;;;;;;5052362;28;20049;-84
2022/12/09 12:29:20;;;;;;;10.48;5.28;;;;;;;;;;5055260;28;20052;-80
2022/12/09 12:31:56;;;;;;;13.45;5.50;;;;;;;;;;5049215;28;20059;-80
2022/12/09 12:34:29;;;;;;;13.15;6.05;;;;;;;;;;5049061;28;20056;-81
2022/12/09 12:37:00;;;;;;;11.77;5.88;;;;;;;;;;5051658;28;20048;-80
2022/12/09 12:39:40;;;;;;;16.27;5.43;;;;;;;;;;5050788;28;20048;-81
2022/12/09 12:42:18;;;;;;;11.55;6.18;;;;;;;;;;5057167;28;20048;-81
2022/12/09 12:47:44;;;;;;;13.50;6.18;;;;;;;;;;5048415;28;20071;-83
2022/12/09 12:50:24;;;;;;;12.93;6.57;;;;;;;;;;5043798;28;20056;-80
2022/12/09 12:52:59;;;;;;;12.20;6.68;;;;;;;;;;5045361;28;20040;-81
2022/12/09 12:55:36;;;;;;;16.65;6.25;;;;;;;;;;5043940;28;20049;-81
2022/12/09 12:58:11;;;;;;;12.48;6.20;;;;;;;;;;5047074;28;20067;-80
2022/12/09 13:00:55;;;;;;;13.52;6.35;;;;;;;;;;5047107;28;20063;-82
2022/12/09 13:03:33;;;;;;;13.68;6.53;;;;;;;;;;5052312;28;20052;-81
2022/12/09 13:06:10;;;;;;;15.30;6.78;;;;;;;;;;5054789;28;20060;-82
2022/12/09 13:08:46;;;;;;;14.18;5.38;;;;;;;;;;5050427;28;20057;-81
2022/12/09 13:11:20;;;;;;;12.43;5.43;;;;;;;;;;5046166;28;20049;-81
2022/12/09 13:13:54;;;;;;;13.48;6.70;;;;;;;;;;5046904;28;20048;-81
2022/12/09 13:16:26;;;;;;;13.27;6.15;;;;;;;;;;5047634;28;20064;-83
2022/12/09 13:18:54;;;;;;;16.55;7.65;;;;;;;;;;5045647;28;20056;-82
2022/12/09 13:21:27;;;;;;;19.95;7.50;;;;;;;;;;5042095;28;20504;-80
2022/12/09 13:23:55;;;;;;;;;;;;;;;;;;5063437;28;20049;-81
2022/12/09 13:26:24;;;;;;;;;;;;;;;;;;5044679;28;19928;-82
2022/12/09 13:28:54;;;;;;;12.60;5.35;;;;;;;;;;5045393;28;19928;-80
2022/12/09 13:31:30;;;;;;;24.42;5.45;;;;;;;;;;5052453;28;20067;-80
2022/12/09 13:34:07;;;;;;;11.95;6.45;;;;;;;;;;5046834;28;21179;-79
2022/12/09 13:36:41;;;;;;;13.15;6.25;;;;;;;;;;5053382;28;20040;-80
2022/12/09 13:39:09;;;;;;;11.88;5.78;;;;;;;;;;5042281;28;20086;-80
2022/12/09 13:44:31;;;;;;;12.20;5.70;;;;;;;;;;5047432;28;20401;-80
2022/12/09 13:47:29;;;;;;;13.82;4.93;;;;;;;;;;5044691;28;20048;-81
2022/12/09 13:50:04;;;;;;;11.23;5.63;;;;;;;;;;4989519;28;20064;-80
2022/12/09 13:52:39;;;;;;;10.75;6.18;;;;;;;;;;5035938;28;20059;-82
2022/12/09 13:55:20;;;;;;;10.20;5.28;;;;;;;;;;5045998;28;20060;-81
2022/12/09 13:57:52;;;;;;;13.57;6.13;;;;;;;;;;5049979;28;20052;-81
2022/12/09 14:00:25;;;;;;;18.75;5.95;;;;;;;;;;5046791;28;20060;-81
2022/12/09 14:02:53;;;;;;;;;;;;;;;;;;5055249;28;20481;-82
2022/12/09 14:05:21;;;;;;;;;;;;;;;;;;5046122;28;19928;-81
2022/12/09 14:07:49;;;;;;;;;;;;;;;;;;5054575;28;19943;-82
2022/12/09 14:10:37;;;;;;;9.68;4.85;;;;;;;;;;5049141;28;20439;-80
2022/12/09 14:13:28;;;;;;;8.88;4.45;;;;;;;;;;5048457;28;20053;-80
2022/12/09 14:16:32;;;;;;;11.20;5.07;;;;;;;;;;5045452;28;20056;-80
2022/12/09 14:19:15;;;;;;;8.32;4.68;;;;;;;;;;5043529;28;20052;-82
2022/12/09 14:22:03;;;;;;;8.55;4.38;;;;;;;;;;5048177;28;20429;-80
2022/12/09 14:24:36;;;;;;;11.38;5.38;;;;;;;;;;5045448;28;20045;-82
2022/12/09 14:27:11;;;;;;;10.50;5.15;;;;;;;;;;5049929;28;20052;-80
2022/12/09 14:29:44;;;;;;;9.63;4.78;;;;;;;;;;5045203;28;20053;-83
2022/12/09 14:32:18;;;;;;;7.40;4.63;;;;;;;;;;5051154;28;20056;-80
2022/12/09 14:34:58;;;;;;;10.02;5.07;;;;;;;;;;5041837;28;20082;-83
2022/12/09 14:37:37;;;;;;;9.65;4.15;;;;;;;;;;5042488;28;20564;-79
2022/12/09 14:40:23;;;;;;;9.00;4.35;;;;;;;;;;5049973;28;20037;-82
2022/12/09 14:43:02;;;;;;;10.45;4.90;;;;;;;;;;5049597;28;20052;-81
2022/12/09 14:45:36;;;;;;;8.90;4.28;;;;;;;;;;5049263;28;20052;-82
2022/12/09 14:48:10;;;;;;;8.25;4.93;;;;;;;;;;5041465;28;20063;-79
2022/12/09 14:50:43;;;;;;;10.10;5.60;;;;;;;;;;5041854;28;20048;-81
2022/12/09 14:53:21;;;;;;;12.75;4.85;;;;;;;;;;5042813;28;20045;-80
2022/12/09 14:55:54;;;;;;;9.63;4.80;;;;;;;;;;5047530;28;20056;-82
2022/12/09 14:58:28;;;;;;;8.40;4.43;;;;;;;;;;5040530;28;20063;-81
2022/12/09 15:01:00;;;;;;;6.40;3.83;;;;;;;;;;5040720;28;20052;-82
2022/12/09 15:03:33;;;;;;;8.73;4.55;;;;;;;;;;5045551;28;20045;-81
2022/12/09 15:06:01;;;;;;;;;;;;;;;;;;5050635;28;20079;-82
2022/12/09 15:08:30;;;;;;;7.28;4.07;;;;;;;;;;5042082;28;20427;-83
2022/12/09 15:10:59;;;;;;;9.57;5.82;;;;;;;;;;5046433;28;20621;-83
2022/12/09 15:13:28;;;;;;;8.25;5.07;;;;;;;;;;5036894;28;20604;-80
2022/12/09 15:15:56;;;;;;;7.55;4.82;;;;;;;;;;5042205;28;20051;-80